createdAt,value
2023-05-17T00:03:01.271Z,15.60
2023-05-17T00:07:09.060Z,15.20
2023-05-17T00:11:17.417Z,13.70
2023-05-17T00:15:27.359Z,15.10
2023-05-17T00:19:35.322Z,16.90
2023-05-17T00:23:43.505Z,16.60
2023-05-17T00:27:51.221Z,17.60
2023-05-17T00:31:59.385Z,13.90
2023-05-17T00:36:08.593Z,16.50
2023-05-17T00:40:18.501Z,15.90
2023-05-17T00:44:26.270Z,14.90
2023-05-17T00:48:34.812Z,18.00
2023-05-17T00:52:43.963Z,16.20
2023-05-17T00:56:51.710Z,19.80
2023-05-17T01:00:59.758Z,15.60
2023-05-17T01:05:08.905Z,16.70
2023-05-17T01:09:17.919Z,15.40
2023-05-17T01:13:32.665Z,16.30
2023-05-17T01:17:43.679Z,15.60
2023-05-17T01:22:12.658Z,15.40
2023-05-17T01:26:22.572Z,15.50
2023-05-17T01:30:31.830Z,17.20
2023-05-17T01:34:39.548Z,15.80
2023-05-17T01:38:47.214Z,19.80
2023-05-17T01:42:58.599Z,16.80
2023-05-17T01:47:14.102Z,17.90
2023-05-17T01:51:22.981Z,20.50
2023-05-17T01:55:36.300Z,18.70
2023-05-17T01:59:45.187Z,17.70
2023-05-17T02:03:53.472Z,19.00
2023-05-17T02:08:01.675Z,13.60
2023-05-17T02:12:10.676Z,13.90
2023-05-17T02:16:18.004Z,14.40
2023-05-17T02:20:27.425Z,12.80
2023-05-17T02:24:35.775Z,12.70
2023-05-17T02:28:44.012Z,12.80
2023-05-17T02:32:52.759Z,10.70
2023-05-17T02:37:00.892Z,12.90
2023-05-17T02:41:08.882Z,13.00
2023-05-17T02:45:16.697Z,9.90
2023-05-17T02:49:24.517Z,10.60
2023-05-17T02:53:32.507Z,10.70
2023-05-17T02:57:40.526Z,8.90
2023-05-17T03:01:50.016Z,9.30
2023-05-17T03:05:58.096Z,8.90
2023-05-17T03:10:05.994Z,8.30
2023-05-17T03:14:13.960Z,9.80
2023-05-17T03:18:22.459Z,9.00
2023-05-17T03:22:30.391Z,9.90
2023-05-17T03:26:38.238Z,11.50
2023-05-17T03:30:46.264Z,13.50
2023-05-17T03:34:54.623Z,9.90
2023-05-17T03:39:01.901Z,8.60
2023-05-17T03:43:09.947Z,8.70
2023-05-17T03:47:17.837Z,9.80
2023-05-17T03:51:25.630Z,8.80
2023-05-17T03:55:33.141Z,8.70
2023-05-17T03:59:41.239Z,8.30
2023-05-17T04:03:49.855Z,10.20
2023-05-17T04:07:58.008Z,8.60
2023-05-17T04:12:06.147Z,8.90
2023-05-17T04:16:13.914Z,8.60
2023-05-17T04:20:22.217Z,13.30
2023-05-17T04:24:30.242Z,11.30
2023-05-17T04:28:37.926Z,10.80
2023-05-17T04:32:50.546Z,8.20
2023-05-17T04:37:02.489Z,9.60
2023-05-17T04:41:12.899Z,9.50
2023-05-17T04:45:26.590Z,7.90
2023-05-17T04:49:38.994Z,6.60
2023-05-17T04:53:46.613Z,9.20
2023-05-17T04:57:58.302Z,8.60
2023-05-17T05:02:07.658Z,9.10
2023-05-17T05:06:16.378Z,8.60
2023-05-17T05:10:31.728Z,9.30
2023-05-17T05:14:47.213Z,10.70
2023-05-17T05:18:54.981Z,7.50
2023-05-17T05:23:09.798Z,10.00
2023-05-17T05:27:20.748Z,7.90
2023-05-17T05:31:32.975Z,8.40
2023-05-17T05:35:47.655Z,6.60
2023-05-17T05:39:58.459Z,9.60
2023-05-17T05:44:06.710Z,11.20
2023-05-17T05:48:19.118Z,9.30
2023-05-17T05:52:26.615Z,6.50
2023-05-17T05:56:36.223Z,7.50
2023-05-17T06:00:52.140Z,9.60
2023-05-17T06:04:59.883Z,8.70
2023-05-17T06:09:12.652Z,8.40
2023-05-17T06:13:22.091Z,10.20
2023-05-17T06:17:32.977Z,10.30
2023-05-17T06:21:47.730Z,7.60
2023-05-17T06:25:57.620Z,9.60
2023-05-17T06:30:11.585Z,11.40
2023-05-17T06:34:19.023Z,8.50
2023-05-17T06:38:43.042Z,9.80
2023-05-17T06:42:54.958Z,9.40
2023-05-17T06:47:07.716Z,10.50
2023-05-17T06:51:17.921Z,10.80
2023-05-17T06:55:32.584Z,13.00
2023-05-17T06:59:39.964Z,12.60
2023-05-17T07:03:50.206Z,9.00
2023-05-17T07:07:57.949Z,11.90
2023-05-17T07:12:09.092Z,11.90
2023-05-17T07:16:20.147Z,12.60
2023-05-17T07:20:33.087Z,12.00
2023-05-17T07:24:49.487Z,13.80
2023-05-17T07:29:00.821Z,11.30
2023-05-17T07:33:09.226Z,9.70
2023-05-17T07:37:19.608Z,11.60
2023-05-17T07:41:32.071Z,10.40
2023-05-17T07:45:41.800Z,10.70
2023-05-17T07:49:55.622Z,12.40
2023-05-17T07:54:10.631Z,13.60
2023-05-17T07:58:25.220Z,11.20
2023-05-17T08:02:43.105Z,10.70
2023-05-17T08:06:55.943Z,12.70
2023-05-17T08:11:08.492Z,9.20
2023-05-17T08:15:22.847Z,13.70
2023-05-17T08:19:33.031Z,9.90
2023-05-17T08:23:44.962Z,10.20
2023-05-17T08:28:00.293Z,11.20
2023-05-17T08:32:16.442Z,11.60
2023-05-17T08:36:24.750Z,9.70
2023-05-17T08:40:36.888Z,10.50
2023-05-17T08:44:44.539Z,10.60
2023-05-17T08:49:04.200Z,11.90
2023-05-17T08:53:12.762Z,11.20
2023-05-17T08:57:24.492Z,13.40
2023-05-17T09:01:44.144Z,9.00
2023-05-17T09:05:54.563Z,11.20
2023-05-17T09:10:06.096Z,12.00
2023-05-17T09:14:13.512Z,11.70
2023-05-17T09:18:22.777Z,11.20
2023-05-17T09:22:31.304Z,12.90
2023-05-17T09:26:46.120Z,12.10
2023-05-17T09:30:55.242Z,12.00
2023-05-17T09:35:03.259Z,10.20
2023-05-17T09:39:13.857Z,9.20
2023-05-17T09:43:30.314Z,11.00
2023-05-17T09:47:38.491Z,8.90
2023-05-17T09:51:48.272Z,12.00
2023-05-17T09:55:58.946Z,9.50
2023-05-17T10:00:12.513Z,10.90
2023-05-17T10:04:26.327Z,10.40
2023-05-17T10:08:34.865Z,10.90
2023-05-17T10:12:44.507Z,9.80
2023-05-17T10:16:57.735Z,12.80
2023-05-17T10:21:06.476Z,8.80
2023-05-17T10:25:16.352Z,11.50
2023-05-17T10:29:26.653Z,12.00
2023-05-17T10:33:36.906Z,10.10
2023-05-17T10:37:44.752Z,10.40
2023-05-17T10:42:07.110Z,10.60
2023-05-17T10:46:23.098Z,10.80
2023-05-17T10:50:32.582Z,7.60
2023-05-17T10:54:40.780Z,11.30
2023-05-17T10:58:49.195Z,8.70
2023-05-17T11:03:14.627Z,10.30
2023-05-17T11:07:29.593Z,14.00
2023-05-17T11:11:37.732Z,11.70
2023-05-17T11:15:46.259Z,7.90
2023-05-17T11:19:58.820Z,9.10
2023-05-17T11:24:09.017Z,10.40
2023-05-17T11:28:23.156Z,13.60
2023-05-17T11:32:33.085Z,11.20
2023-05-17T11:36:54.649Z,10.30
2023-05-17T11:45:30.467Z,7.70
2023-05-17T11:49:40.561Z,11.00
2023-05-17T11:53:49.529Z,9.70
2023-05-17T11:57:58.325Z,9.80
2023-05-17T12:02:06.508Z,10.20
2023-05-17T12:06:16.815Z,10.20
2023-05-17T12:10:24.901Z,8.20
2023-05-17T12:14:33.155Z,7.30
2023-05-17T12:18:42.420Z,10.80
2023-05-17T12:22:57.676Z,10.30
2023-05-17T12:27:05.994Z,9.20
2023-05-17T12:31:16.253Z,9.10
2023-05-17T12:35:24.028Z,9.30
2023-05-17T12:39:34.061Z,9.20
2023-05-17T12:43:45.137Z,9.60
2023-05-17T12:47:52.602Z,9.90
2023-05-17T12:52:06.480Z,7.80
2023-05-17T12:56:22.554Z,8.40
2023-05-17T13:00:32.128Z,9.60
2023-05-17T13:04:40.354Z,9.40
2023-05-17T13:08:48.690Z,8.90
2023-05-17T13:13:01.068Z,10.80
2023-05-17T13:17:10.303Z,8.80
2023-05-17T13:21:19.249Z,9.50
2023-05-17T13:25:27.091Z,10.80
2023-05-17T13:29:40.140Z,8.20
2023-05-17T13:33:50.215Z,8.00
2023-05-17T13:37:58.700Z,12.20
2023-05-17T13:42:06.660Z,7.80
2023-05-17T13:46:14.551Z,11.40
2023-05-17T13:50:24.198Z,12.40
2023-05-17T13:54:32.108Z,8.60
2023-05-17T13:58:39.903Z,10.60
2023-05-17T14:02:47.186Z,9.50
2023-05-17T14:06:55.447Z,9.10
2023-05-17T14:11:02.868Z,9.90
2023-05-17T14:15:14.314Z,10.60
2023-05-17T14:19:24.185Z,10.00
2023-05-17T14:23:32.795Z,8.90
2023-05-17T14:27:40.946Z,11.10
2023-05-17T14:31:48.893Z,10.30
2023-05-17T14:35:59.594Z,11.50
2023-05-17T14:40:09.453Z,9.60
2023-05-17T14:44:17.521Z,9.90
2023-05-17T14:48:25.200Z,10.60
2023-05-17T14:52:32.574Z,10.30
2023-05-17T14:56:41.591Z,11.90
2023-05-17T15:00:54.144Z,12.70
2023-05-17T15:05:04.864Z,13.70
2023-05-17T15:09:14.358Z,17.20
2023-05-17T15:13:22.147Z,11.90
2023-05-17T15:17:30.375Z,9.50
2023-05-17T15:21:38.236Z,11.80
2023-05-17T15:25:46.063Z,10.10
2023-05-17T15:29:54.118Z,10.60
2023-05-17T15:34:03.764Z,9.30
2023-05-17T15:38:15.780Z,10.30
2023-05-17T15:42:25.584Z,10.20
2023-05-17T15:46:35.056Z,9.20
2023-05-17T15:50:44.474Z,11.40
2023-05-17T15:54:54.032Z,11.30
2023-05-17T15:59:02.875Z,10.30
2023-05-17T16:03:10.733Z,11.00
2023-05-17T16:07:19.528Z,11.80
2023-05-17T16:11:29.234Z,11.90
2023-05-17T16:15:37.173Z,9.30
2023-05-17T16:19:45.479Z,9.00
2023-05-17T16:23:53.636Z,9.60
2023-05-17T16:28:01.465Z,9.60
2023-05-17T16:32:09.837Z,10.50
2023-05-17T16:36:18.014Z,10.00
2023-05-17T16:40:28.835Z,10.40
2023-05-17T16:44:38.316Z,9.70
2023-05-17T16:48:46.002Z,10.50
2023-05-17T16:52:54.952Z,9.20
2023-05-17T16:57:08.282Z,17.80
2023-05-17T17:01:16.601Z,11.90
2023-05-17T17:05:24.406Z,13.10
2023-05-17T17:09:32.540Z,9.90
2023-05-17T17:13:40.637Z,17.80
2023-05-17T17:17:48.412Z,13.40
2023-05-17T17:21:55.765Z,12.60
2023-05-17T17:26:03.667Z,13.70
2023-05-17T17:30:16.842Z,12.70
2023-05-17T17:34:28.893Z,11.90
2023-05-17T17:38:38.972Z,12.40
2023-05-17T17:42:47.662Z,11.50
2023-05-17T17:46:56.167Z,12.60
2023-05-17T17:51:04.909Z,9.90
2023-05-17T17:55:13.999Z,7.80
2023-05-17T17:59:21.808Z,11.50
2023-05-17T18:03:29.919Z,11.50
2023-05-17T18:07:37.897Z,12.70
2023-05-17T18:11:45.810Z,9.20
2023-05-17T18:15:53.844Z,9.90
2023-05-17T18:20:01.956Z,10.50
2023-05-17T18:24:10.884Z,12.40
2023-05-17T18:28:21.701Z,11.50
2023-05-17T18:32:38.179Z,11.70
2023-05-17T18:36:48.205Z,12.40
2023-05-17T18:40:56.411Z,13.10
2023-05-17T18:45:05.293Z,13.10
2023-05-17T18:49:13.554Z,12.80
2023-05-17T18:53:21.086Z,10.80
2023-05-17T18:57:28.742Z,14.30
2023-05-17T19:01:38.293Z,11.00
2023-05-17T19:05:45.966Z,12.70
2023-05-17T19:09:54.332Z,10.00
2023-05-17T19:14:02.702Z,12.30
2023-05-17T19:18:11.064Z,10.30
2023-05-17T19:22:20.091Z,10.80
2023-05-17T19:26:27.928Z,12.20
2023-05-17T19:30:37.534Z,11.80
2023-05-17T19:34:45.941Z,10.80
2023-05-17T19:38:53.874Z,10.80
2023-05-17T19:43:02.319Z,12.80
2023-05-17T19:47:11.627Z,9.90
2023-05-17T19:51:20.951Z,13.60
2023-05-17T19:55:30.417Z,11.30
2023-05-17T19:59:41.620Z,15.20
2023-05-17T20:03:49.579Z,12.20
2023-05-17T20:07:57.909Z,19.00
2023-05-17T20:12:07.388Z,19.70
2023-05-17T20:16:15.303Z,20.20
2023-05-17T20:20:23.400Z,21.30
2023-05-17T20:24:31.431Z,23.60
2023-05-17T20:28:40.141Z,32.00
2023-05-17T20:32:47.895Z,31.40
2023-05-17T20:36:56.470Z,30.40
2023-05-17T20:41:07.081Z,34.20
2023-05-17T20:45:18.084Z,29.60
2023-05-17T20:49:26.662Z,33.20
2023-05-17T20:53:35.051Z,27.30
2023-05-17T20:57:43.347Z,23.80
2023-05-17T21:01:51.765Z,21.60
2023-05-17T21:06:01.036Z,21.90
2023-05-17T21:10:10.294Z,20.90
2023-05-17T21:14:18.557Z,22.30
2023-05-17T21:18:26.564Z,20.80
2023-05-17T21:22:35.862Z,18.30
2023-05-17T21:26:43.745Z,20.70
2023-05-17T21:30:53.432Z,17.50
2023-05-17T21:35:01.988Z,16.10
2023-05-17T21:39:09.655Z,15.70
2023-05-17T21:43:18.839Z,15.90
2023-05-17T21:47:28.446Z,18.70
2023-05-17T21:51:35.978Z,14.70
2023-05-17T21:55:56.971Z,17.80
2023-05-17T22:00:13.125Z,16.40
2023-05-17T22:04:20.974Z,15.90
2023-05-17T22:08:29.607Z,13.30
2023-05-17T22:12:38.609Z,14.10
2023-05-17T22:16:47.546Z,15.40
2023-05-17T22:20:55.114Z,14.20
2023-05-17T22:25:03.518Z,16.20
2023-05-17T22:29:11.942Z,11.20
2023-05-17T22:33:22.010Z,13.90
2023-05-17T22:37:30.655Z,15.10
2023-05-17T22:41:39.051Z,17.60
2023-05-17T22:45:47.057Z,13.30
2023-05-17T22:49:55.260Z,15.60
2023-05-17T22:54:03.217Z,12.20
2023-05-17T22:58:11.352Z,16.70
2023-05-17T23:02:19.516Z,15.10
2023-05-17T23:06:32.197Z,15.40
2023-05-17T23:10:40.849Z,13.00
2023-05-17T23:14:49.281Z,15.70
2023-05-17T23:18:58.385Z,13.80
2023-05-17T23:23:08.587Z,11.70
2023-05-17T23:27:15.920Z,15.30
2023-05-17T23:31:26.052Z,15.70
2023-05-17T23:35:35.213Z,14.80
2023-05-17T23:39:44.669Z,14.00
2023-05-17T23:43:52.527Z,13.80
2023-05-17T23:48:01.448Z,15.50
2023-05-17T23:52:11.135Z,14.00
2023-05-17T23:56:19.393Z,14.80
